.
WxDataArchive / Data Records for 2006-05-06
2006-05-05 May 2006 2006-05-07

Data Records for Saturday, 06 May 2006

Time	Temp	Chill	HIndex	Humid	Dewpt	 Wind 	HiWind	WindDir	Rain 	Barom 
-----	----	-----	------	-----	-----	------	------	-------	-----	----- 
00:00	50.1	50.1	50.1	66	39.2	0	1	292	0.00	29.909 
00:05	49.9	49.9	49.9	65	38.6	1	3	292	0.00	29.909 
00:10	50.1	50.1	50.1	65	38.8	1	2	292	0.00	29.909 
00:15	49.9	49.9	49.9	65	38.6	1	2	315	0.00	29.909 
00:20	49.9	49.9	49.9	66	39.0	0	1	315	0.00	29.909 
00:25	49.8	49.8	49.8	66	38.9	1	2	315	0.00	29.909 
00:30	49.9	49.9	49.9	66	39.0	1	3	292	0.00	29.910 
00:35	49.9	49.9	49.9	65	38.6	1	3	292	0.00	29.910 
00:40	49.9	49.9	49.9	65	38.6	1	3	292	0.00	29.910 
00:45	49.8	49.8	49.8	66	38.9	0	3	292	0.00	29.909 
00:50	49.8	49.8	49.8	66	38.9	0	2	292	0.00	29.909 
00:55	49.6	49.6	49.6	66	38.7	1	3	248	0.00	29.909 
01:00	49.5	49.5	49.5	66	38.6	1	2	292	0.00	29.916 
01:05	49.4	49.4	49.4	67	38.9	0	2	292	0.00	29.916 
01:10	49.2	49.2	49.2	66	38.3	1	4	292	0.00	29.916 
01:15	49.1	49.1	49.1	66	38.2	1	3	270	0.00	29.917 
01:20	48.9	48.9	48.9	66	38.0	0	2	270	0.00	29.917 
01:25	48.8	48.8	48.8	67	38.3	0	2	270	0.00	29.917 
01:30	48.8	48.8	48.8	67	38.3	1	2	315	0.00	29.919 
01:35	48.6	48.6	48.6	66	37.8	1	3	315	0.00	29.919 
01:40	48.6	48.6	48.6	67	38.1	0	3	270	0.00	29.919 
01:45	48.6	48.6	48.6	67	38.1	0	2	248	0.00	29.919 
01:50	48.5	48.5	48.5	68	38.4	0	2	315	0.00	29.919 
01:55	48.3	48.3	48.3	68	38.2	0	2	315	0.00	29.919 
02:00	48.5	48.5	48.5	68	38.4	0	3	292	0.00	29.921 
02:05	48.3	48.3	48.3	68	38.2	0	2	292	0.00	29.921 
02:10	48.5	48.5	48.5	68	38.4	0	2	292	0.00	29.921 
02:15	48.5	48.5	48.5	68	38.4	0	1	292	0.00	29.921 
02:20	48.6	48.6	48.6	68	38.5	0	1	292	0.00	29.921 
02:25	48.6	48.6	48.6	68	38.5	0	1	292	0.00	29.921 
02:30	48.8	48.8	48.8	67	38.3	0	1	292	0.00	29.920 
02:35	48.8	48.8	48.8	68	38.7	0	1	292	0.00	29.920 
02:40	48.9	48.9	48.9	68	38.8	0	1	292	0.00	29.920 
02:45	48.9	48.9	48.9	68	38.8	0	2	292	0.00	29.914 
02:50	48.8	48.8	48.8	68	38.7	0	1	292	0.00	29.914 
02:55	48.8	48.8	48.8	67	38.3	0	2	292	0.00	29.914 
03:00	48.9	48.9	48.9	66	38.0	1	3	292	0.00	29.907 
03:05	48.9	48.9	48.9	66	38.0	0	1	292	0.00	29.907 
03:10	48.9	48.9	48.9	66	38.0	0	3	315	0.00	29.907 
03:15	48.9	48.9	48.9	65	37.7	0	1	315	0.00	29.906 
03:20	48.9	48.9	48.9	65	37.7	0	2	315	0.00	29.906 
03:25	48.8	48.8	48.8	65	37.6	1	4	315	0.00	29.906 
03:30	48.8	48.8	48.8	65	37.6	1	3	270	0.00	29.905 
03:35	48.6	48.6	48.6	65	37.4	0	3	270	0.00	29.905 
03:40	48.5	48.5	48.5	66	37.7	0	3	292	0.00	29.905 
03:45	48.2	48.2	48.2	67	37.8	0	1	292	0.00	29.907 
03:50	47.9	47.9	47.9	68	37.9	0	2	292	0.00	29.907 
03:55	47.6	47.6	47.6	69	37.9	0	2	292	0.00	29.907 
04:00	47.3	47.3	47.3	69	37.7	0	1	292	0.00	29.908 
04:05	47.1	47.1	47.1	70	37.8	0	1	292	0.00	29.908 
04:10	46.8	46.8	46.8	70	37.5	0	1	292	0.00	29.908 
04:15	46.7	46.7	46.7	71	37.8	0	1	292	0.00	29.912 
04:20	46.5	46.5	46.5	71	37.6	0	2	292	0.00	29.912 
04:25	46.4	46.4	46.4	72	37.9	0	1	292	0.00	29.912 
04:30	46.2	46.2	46.2	72	37.7	0	1	292	0.00	29.917 
04:35	46.2	46.2	46.2	72	37.7	0	1	292	0.00	29.917 
04:40	46.4	46.4	46.4	72	37.9	0	2	292	0.00	29.917 
04:45	46.5	46.5	46.5	72	38.0	1	5	338	0.00	29.921 
04:50	46.7	46.7	46.7	72	38.2	0	1	338	0.00	29.921 
04:55	46.7	46.7	46.7	71	37.8	0	3	292	0.00	29.921 
05:00	46.8	46.8	46.8	71	37.9	1	4	292	0.00	29.923 
05:05	47.0	47.0	47.0	71	38.1	1	2	270	0.00	29.923 
05:10	47.0	47.0	47.0	71	38.1	0	2	270	0.00	29.923 
05:15	47.0	47.0	47.0	70	37.7	1	4	270	0.00	29.933 
05:20	47.1	47.1	47.1	71	38.2	0	3	270	0.00	29.933 
05:25	47.0	47.0	47.0	70	37.7	0	2	270	0.00	29.933 
05:30	46.8	46.8	46.8	70	37.5	0	2	270	0.00	29.938 
05:35	46.7	46.7	46.7	71	37.8	0	2	270	0.00	29.938 
05:40	46.4	46.4	46.4	71	37.5	0	2	270	0.00	29.938 
05:45	46.2	46.2	46.2	71	37.3	0	2	270	0.00	29.945 
05:50	45.8	45.8	45.8	72	37.3	0	1	270	0.00	29.945 
05:55	45.5	45.5	45.5	73	37.4	0	1	270	0.00	29.945 
06:00	45.2	45.2	45.2	73	37.1	0	0	---	0.00	29.951 
06:05	45.1	45.1	45.1	73	37.0	0	0	---	0.00	29.951 
06:10	44.8	44.8	44.8	74	37.0	0	1	270	0.00	29.951 
06:15	44.6	44.6	44.6	74	36.8	0	0	---	0.00	29.955 
06:20	44.5	44.5	44.5	75	37.1	0	1	270	0.00	29.955 
06:25	44.3	44.3	44.3	75	36.9	0	1	270	0.00	29.955 
06:30	44.2	44.2	44.2	76	37.1	0	1	270	0.00	29.960 
06:35	44.1	44.1	44.1	76	37.0	0	0	---	0.00	29.960 
06:40	43.9	43.9	43.9	76	36.8	0	1	270	0.00	29.960 
06:45	43.8	43.8	43.8	77	37.1	0	0	---	0.00	29.965 
06:50	43.6	43.6	43.6	77	36.9	0	1	270	0.00	29.965 
06:55	43.5	43.5	43.5	77	36.8	0	0	---	0.00	29.965 
07:00	43.3	43.3	43.3	77	36.6	0	0	---	0.00	29.964 
07:05	43.3	43.3	43.3	78	36.9	0	1	270	0.00	29.964 
07:10	43.5	43.5	43.5	78	37.1	0	1	270	0.00	29.964 
07:15	43.6	43.6	43.6	78	37.2	0	0	---	0.00	29.969 
07:20	43.9	43.9	43.9	77	37.2	0	1	270	0.00	29.969 
07:25	44.2	44.2	44.2	77	37.5	0	2	270	0.00	29.969 
07:30	44.3	44.3	44.3	77	37.6	0	1	270	0.00	29.974 
07:35	44.6	44.6	44.6	76	37.5	0	2	270	0.00	29.974 
07:40	44.9	44.9	44.9	75	37.5	0	2	270	0.00	29.974 
07:45	45.2	45.2	45.2	75	37.8	0	3	270	0.00	29.984 
07:50	45.7	45.7	45.7	74	37.9	0	3	270	0.00	29.984 
07:55	46.1	46.1	46.1	72	37.6	0	1	270	0.00	29.984 
08:00	46.4	46.4	46.4	71	37.5	0	3	338	0.00	29.994 
08:05	46.7	46.7	46.7	70	37.4	0	1	338	0.00	29.994 
08:10	47.0	47.0	47.0	70	37.7	1	2	338	0.00	29.994 
08:15	47.4	47.4	47.4	70	38.1	1	4	0	0.00	29.994 
08:20	47.7	47.7	47.7	67	37.3	1	3	22	0.00	29.994 
08:25	48.0	48.0	48.0	67	37.6	1	4	22	0.00	29.994 
08:30	48.9	48.9	48.9	65	37.7	1	4	90	0.00	30.003 
08:35	49.2	49.2	49.2	63	37.1	1	3	0	0.00	30.003 
08:40	49.2	49.2	49.2	63	37.1	1	4	292	0.00	30.003 
08:45	49.4	49.4	49.4	63	37.3	1	5	315	0.00	30.009 
08:50	49.6	49.6	49.6	63	37.5	1	3	22	0.00	30.009 
08:55	50.1	50.1	50.1	62	37.6	1	4	45	0.00	30.009 
09:00	50.2	50.2	50.2	59	36.4	1	9	45	0.00	30.010 
09:05	50.5	50.5	50.5	60	37.1	1	5	45	0.00	30.010 
09:10	50.7	50.7	50.7	60	37.3	1	2	45	0.00	30.010 
09:15	50.5	50.5	50.5	59	36.7	1	4	315	0.00	30.015 
09:20	50.2	50.2	50.2	59	36.4	1	2	315	0.00	30.015 
09:25	50.7	50.7	50.7	58	36.5	1	4	22	0.00	30.015 
09:30	51.3	51.3	51.3	55	35.7	2	7	112	0.00	30.019 
09:35	51.4	51.4	51.4	56	36.2	2	6	45	0.00	30.019 
09:40	51.3	51.3	51.3	55	35.7	1	3	0	0.00	30.019 
09:45	51.7	51.7	51.7	58	37.4	1	3	338	0.00	30.023 
09:50	52.9	52.9	52.9	54	36.7	1	3	68	0.00	30.023 
09:55	53.2	53.2	53.2	53	36.5	1	4	68	0.00	30.023 
10:00	52.9	52.9	52.9	50	34.8	1	4	315	0.00	30.025 
10:05	53.6	53.6	53.6	53	36.9	1	5	270	0.00	30.025 
10:10	54.2	54.2	54.2	50	36.0	1	6	90	0.00	30.025 
10:15	54.4	54.4	54.4	49	35.6	1	6	45	0.00	30.031 
10:20	54.5	54.5	54.5	49	35.7	2	6	68	0.00	30.031 
10:25	54.7	54.7	54.7	51	36.9	1	4	90	0.00	30.031 
10:30	54.5	54.5	54.5	47	34.7	2	6	90	0.00	30.032 
10:35	54.7	54.7	54.7	48	35.4	1	4	135	0.00	30.032 
10:40	54.7	54.7	54.7	49	35.9	1	3	22	0.00	30.032 
10:45	55.1	55.1	55.1	45	34.1	1	4	68	0.00	30.040 
10:50	54.8	54.8	54.8	49	36.0	1	5	0	0.00	30.040 
10:55	55.3	55.3	55.3	47	35.4	2	5	90	0.00	30.040 
11:00	55.1	55.1	55.1	46	34.7	2	4	292	0.00	30.040 
11:05	54.8	54.8	54.8	51	37.0	1	4	270	0.00	30.040 
11:10	55.3	55.3	55.3	49	36.5	1	5	315	0.00	30.040 
11:15	55.9	55.9	55.9	45	34.9	2	5	45	0.00	30.044 
11:20	55.6	55.6	55.6	43	33.5	1	4	0	0.00	30.044 
11:25	55.4	55.4	55.4	45	34.4	2	7	270	0.00	30.044 
11:30	55.3	55.3	55.3	44	33.8	1	4	315	0.00	30.047 
11:35	55.7	55.7	55.7	50	37.3	2	5	292	0.00	30.047 
11:40	55.6	55.6	55.6	46	35.2	2	6	315	0.00	30.047 
11:45	55.6	55.6	55.6	45	34.6	2	5	292	0.00	30.049 
11:50	56.0	56.0	56.0	47	36.1	2	5	270	0.00	30.049 
11:55	56.0	56.0	56.0	48	36.6	1	4	315	0.00	30.049 
12:00	56.2	56.2	56.2	48	36.8	1	3	315	0.00	30.052 
12:05	56.0	56.0	56.0	47	36.1	1	4	315	0.00	30.052 
12:10	56.3	56.3	56.3	44	34.7	1	3	315	0.00	30.052 
12:15	56.6	56.6	56.6	43	34.4	1	4	338	0.00	30.048 
12:20	57.2	57.2	57.2	46	36.6	1	4	338	0.00	30.048 
12:25	57.5	57.5	57.5	42	34.6	2	3	315	0.00	30.048 
12:30	57.2	57.2	57.2	41	33.7	1	3	338	0.00	30.041 
12:35	57.6	57.6	57.6	43	35.3	2	5	68	0.00	30.041 
12:40	58.0	58.0	58.0	46	37.3	1	4	90	0.00	30.041 
12:45	58.4	58.4	58.4	46	37.7	1	7	270	0.00	30.040 
12:50	58.0	58.0	58.0	43	35.6	1	2	0	0.00	30.040 
12:55	57.5	57.5	57.5	41	34.0	2	10	270	0.00	30.040 
13:00	57.5	57.5	57.5	44	35.8	2	5	45	0.00	30.041 
13:05	58.0	58.0	58.0	44	36.2	0	3	22	0.00	30.041 
13:10	58.6	58.6	58.6	45	37.3	1	5	90	0.00	30.041 
13:15	58.4	58.4	58.4	41	34.8	2	6	22	0.00	30.038 
13:20	58.7	58.7	58.7	41	35.1	1	3	270	0.00	30.038 
13:25	59.0	59.0	59.0	36	32.1	1	4	112	0.00	30.038 
13:30	58.9	58.9	58.9	39	34.0	1	4	45	0.00	30.031 
13:35	58.9	58.9	58.9	36	32.0	1	4	22	0.00	30.031 
13:40	59.3	59.3	59.3	36	32.4	1	4	112	0.00	30.031 
13:45	59.5	59.5	59.5	32	29.6	1	3	315	0.00	30.032 
13:50	59.3	59.3	59.3	33	30.2	1	3	292	0.00	30.032 
13:55	59.0	59.0	59.0	33	29.9	1	2	0	0.00	30.032 
14:00	59.5	59.5	59.5	38	33.9	1	7	68	0.00	30.022 
14:05	59.9	59.9	59.9	41	36.1	1	4	22	0.00	30.022 
14:10	59.9	59.9	59.9	34	31.5	1	3	292	0.00	30.022 
14:15	59.8	59.8	59.8	33	30.6	1	6	315	0.00	30.019 
14:20	59.9	59.9	59.9	35	32.2	2	6	45	0.00	30.019 
14:25	59.9	59.9	59.9	32	30.0	2	7	112	0.00	30.019 
14:30	60.1	60.1	60.1	31	29.4	1	5	90	0.00	30.012 
14:35	60.2	60.2	60.2	35	32.4	1	5	68	0.00	30.012 
14:40	60.7	60.7	60.7	35	32.9	1	3	68	0.00	30.012 
14:45	60.9	60.9	60.9	43	38.3	2	5	112	0.00	30.004 
14:50	60.9	60.9	60.9	41	37.0	2	6	112	0.00	30.004 
14:55	61.0	61.0	61.0	35	33.2	1	4	22	0.00	30.004 
15:00	60.9	60.9	60.9	33	31.6	3	11	292	0.00	30.003 
15:05	61.0	61.0	61.0	30	29.3	2	7	68	0.00	30.003 
15:10	61.2	61.2	61.2	38	35.4	1	5	90	0.00	30.003 
15:15	61.0	61.0	61.0	31	30.2	2	7	90	0.00	29.998 
15:20	60.9	60.9	60.9	35	33.1	3	7	112	0.00	29.998 
15:25	60.9	60.9	60.9	27	26.7	3	10	90	0.00	29.998 
15:30	60.7	60.7	60.7	30	29.1	3	8	112	0.00	29.995 
15:35	60.9	60.9	60.9	34	32.3	2	6	112	0.00	29.995 
15:40	60.9	60.9	60.9	30	29.3	1	5	90	0.00	29.995 
15:45	61.3	61.3	61.3	38	35.5	2	6	90	0.00	29.991 
15:50	61.3	61.3	61.3	35	33.4	3	6	90	0.00	29.991 
15:55	61.2	61.2	61.2	30	29.5	3	7	90	0.00	29.991 
16:00	60.9	60.9	60.9	30	29.3	2	5	90	0.00	29.991 
16:05	60.7	60.7	60.7	30	29.1	3	5	90	0.00	29.991 
16:10	61.0	61.0	61.0	27	26.8	2	7	90	0.00	29.991 
16:15	61.3	61.3	61.3	27	27.0	1	4	90	0.00	29.991 
16:20	61.6	61.6	61.6	29	29.0	1	3	90	0.00	29.991 
16:25	61.6	61.6	61.6	29	29.0	1	3	248	0.00	29.991 
16:30	61.5	61.5	61.5	31	30.6	2	5	90	0.00	29.989 
16:35	61.8	61.8	61.8	31	30.8	1	5	90	0.00	29.989 
16:40	61.5	61.5	61.5	28	28.1	3	5	90	0.00	29.989 
16:45	61.3	61.3	61.3	27	27.0	1	5	112	0.00	29.988 
16:50	61.5	61.5	61.5	28	28.1	1	2	248	0.00	29.988 
16:55	61.3	61.3	61.3	28	27.9	2	5	90	0.00	29.988 
17:00	61.3	61.3	61.3	30	29.6	1	4	90	0.00	29.988 
17:05	61.6	61.6	61.6	29	29.0	1	4	90	0.00	29.988 
17:10	61.8	61.8	61.8	27	27.5	1	3	68	0.00	29.988 
17:15	62.4	62.4	62.4	27	28.0	0	2	0	0.00	29.991 
17:20	62.4	62.4	62.4	27	28.0	1	3	68	0.00	29.991 
17:25	62.3	62.3	62.3	25	26.0	0	2	68	0.00	29.991 
17:30	62.0	62.0	62.0	28	28.5	1	4	90	0.00	29.989 
17:35	62.0	62.0	62.0	27	27.6	0	2	45	0.00	29.989 
17:40	61.8	61.8	61.8	25	25.6	1	3	338	0.00	29.989 
17:45	61.8	61.8	61.8	24	24.6	1	5	45	0.00	29.991 
17:50	61.3	61.3	61.3	25	25.2	1	4	112	0.00	29.991 
17:55	61.2	61.2	61.2	25	25.1	0	2	112	0.00	29.991 
18:00	61.3	61.3	61.3	30	29.6	0	2	112	0.00	29.991 
18:05	61.3	61.3	61.3	29	28.8	1	3	90	0.00	29.991 
18:10	61.2	61.2	61.2	26	26.0	1	3	90	0.00	29.991 
18:15	60.7	60.7	60.7	26	25.6	1	4	90	0.00	29.993 
18:20	60.5	60.5	60.5	30	28.9	1	3	135	0.00	29.993 
18:25	60.2	60.2	60.2	28	27.0	1	3	112	0.00	29.993 
18:30	60.2	60.2	60.2	30	28.7	1	5	112	0.00	29.996 
18:35	60.2	60.2	60.2	27	26.1	1	3	90	0.00	29.996 
18:40	59.9	59.9	59.9	27	25.8	2	6	90	0.00	29.996 
18:45	59.9	59.9	59.9	28	26.7	2	4	90	0.00	30.001 
18:50	59.8	59.8	59.8	29	27.5	1	2	90	0.00	30.001 
18:55	59.6	59.6	59.6	27	25.6	0	2	90	0.00	30.001 
19:00	59.6	59.6	59.6	29	27.3	0	3	90	0.00	30.003 
19:05	59.5	59.5	59.5	27	25.5	1	4	90	0.00	30.003 
19:10	59.3	59.3	59.3	28	26.2	2	4	90	0.00	30.003 
19:15	59.0	59.0	59.0	26	24.2	1	3	90	0.00	30.002 
19:20	59.0	59.0	59.0	28	25.9	0	2	90	0.00	30.002 
19:25	59.0	59.0	59.0	30	27.6	0	1	90	0.00	30.002 
19:30	58.9	58.9	58.9	29	26.7	0	2	90	0.00	30.006 
19:35	58.7	58.7	58.7	28	25.7	1	3	90	0.00	30.006 
19:40	58.7	58.7	58.7	30	27.4	0	2	90	0.00	30.006 
19:45	58.6	58.6	58.6	31	28.1	0	0	---	0.00	30.007 
19:50	58.3	58.3	58.3	31	27.8	0	2	90	0.00	30.007 
19:55	58.0	58.0	58.0	30	26.7	0	0	---	0.00	30.007 
20:00	57.6	57.6	57.6	31	27.2	0	0	---	0.00	30.008 
20:05	57.3	57.3	57.3	31	26.9	0	0	---	0.00	30.008 
20:10	57.0	57.0	57.0	31	26.7	0	0	---	0.00	30.008 
20:15	56.6	56.6	56.6	32	27.1	0	0	---	0.00	30.004 
20:20	56.2	56.2	56.2	32	26.7	0	0	---	0.00	30.004 
20:25	55.7	55.7	55.7	33	27.0	0	0	---	0.00	30.004 
20:30	55.3	55.3	55.3	33	26.7	0	0	---	0.00	30.003 
20:35	54.8	54.8	54.8	34	27.0	0	0	---	0.00	30.003 
20:40	54.4	54.4	54.4	35	27.3	0	0	---	0.00	30.003 
20:45	54.1	54.1	54.1	35	27.1	0	0	---	0.00	30.003 
20:50	53.6	53.6	53.6	37	28.0	0	0	---	0.00	30.003 
20:55	53.2	53.2	53.2	38	28.3	0	0	---	0.00	30.003 
21:00	52.8	52.8	52.8	39	28.5	0	0	---	0.00	30.008 
21:05	52.2	52.2	52.2	41	29.2	0	0	---	0.00	30.008 
21:10	51.6	51.6	51.6	41	28.7	0	0	---	0.00	30.008 
21:15	51.1	51.1	51.1	42	28.8	0	0	---	0.00	30.007 
21:20	50.8	50.8	50.8	44	29.7	0	0	---	0.00	30.007 
21:25	50.5	50.5	50.5	46	30.5	0	0	---	0.00	30.007 
21:30	50.1	50.1	50.1	47	30.7	0	0	---	0.00	30.011 
21:35	49.8	49.8	49.8	46	29.9	0	0	---	0.00	30.011 
21:40	49.4	49.4	49.4	49	31.0	0	0	---	0.00	30.011 
21:45	49.1	49.1	49.1	49	30.8	0	0	---	0.00	30.014 
21:50	48.8	48.8	48.8	49	30.5	0	0	---	0.00	30.014 
21:55	48.3	48.3	48.3	50	30.5	0	0	---	0.00	30.014 
22:00	48.2	48.2	48.2	52	31.4	0	0	---	0.00	30.018 
22:05	48.0	48.0	48.0	51	30.7	0	0	---	0.00	30.018 
22:10	47.6	47.6	47.6	54	31.8	0	0	---	0.00	30.018 
22:15	47.3	47.3	47.3	54	31.5	0	0	---	0.00	30.024 
22:20	47.0	47.0	47.0	54	31.2	0	0	---	0.00	30.024 
22:25	46.8	46.8	46.8	57	32.4	0	0	---	0.00	30.024 
22:30	46.5	46.5	46.5	58	32.5	0	0	---	0.00	30.023 
22:35	46.2	46.2	46.2	59	32.7	0	0	---	0.00	30.023 
22:40	46.1	46.1	46.1	61	33.4	0	0	---	0.00	30.023 
22:45	46.0	46.0	46.0	62	33.7	0	0	---	0.00	30.028 
22:50	45.7	45.7	45.7	64	34.2	0	0	---	0.00	30.028 
22:55	45.5	45.5	45.5	65	34.4	0	0	---	0.00	30.028 
23:00	45.2	45.2	45.2	66	34.5	0	0	---	0.00	30.030 
23:05	45.1	45.1	45.1	66	34.4	0	0	---	0.00	30.030 
23:10	44.9	44.9	44.9	67	34.6	0	0	---	0.00	30.030 
23:15	44.9	44.9	44.9	67	34.6	0	0	---	0.00	30.030 
23:20	44.8	44.8	44.8	68	34.9	0	0	---	0.00	30.030 
23:25	44.6	44.6	44.6	68	34.7	0	0	---	0.00	30.030 
23:30	44.5	44.5	44.5	67	34.2	0	0	---	0.00	30.029 
23:35	44.3	44.3	44.3	67	34.0	0	0	---	0.00	30.029 
23:40	44.2	44.2	44.2	67	33.9	0	0	---	0.00	30.029 
23:45	44.1	44.1	44.1	68	34.2	0	0	---	0.00	30.030 
23:50	43.9	43.9	43.9	69	34.4	0	0	---	0.00	30.030 
23:55	43.8	43.8	43.8	69	34.3	0	0	---	0.00	30.030 

CoCoRaHS
IN-AL-39
A2 Web Hosting
Creative Commons License
GoDaddy
Look for:

loaded 2017-12-11 14:13:28 • last modified 2010-11-18 10:43:29
Privacy PolicyDisclaimer
• wx.awcolley.com is powered by PmWiki v.2002016 •
• all content (unless otherwise noted) © 2017 A W Colley